createdAt,value
2023-02-22T00:00:51.960Z,101461.80
2023-02-22T00:01:52.702Z,101461.75
2023-02-22T00:02:53.322Z,101460.80
2023-02-22T00:03:02.385Z,101460.05
2023-02-22T00:04:03.158Z,101448.70
2023-02-22T00:05:03.818Z,101448.05
2023-02-22T00:06:04.381Z,101447.97
2023-02-22T00:07:04.501Z,101447.70
2023-02-22T00:08:05.174Z,101447.78
2023-02-22T00:09:06.089Z,101448.05
2023-02-22T00:10:06.864Z,101448.06
2023-02-22T00:11:07.593Z,101447.97
2023-02-22T00:12:08.285Z,101446.87
2023-02-22T00:13:08.493Z,101446.45
2023-02-22T00:14:09.138Z,101446.89
2023-02-22T00:15:09.899Z,101446.99
2023-02-22T00:16:10.272Z,101447.07
2023-02-22T00:17:11.115Z,101447.16
2023-02-22T00:18:11.790Z,101447.34
2023-02-22T00:19:12.162Z,101447.51
2023-02-22T00:20:12.640Z,101447.25
2023-02-22T00:21:13.469Z,101447.43
2023-02-22T00:22:14.212Z,101447.37
2023-02-22T00:23:14.298Z,101447.13
2023-02-22T00:24:15.056Z,101447.55
2023-02-22T00:25:15.729Z,101447.66
2023-02-22T00:26:15.932Z,101447.48
2023-02-22T00:27:16.712Z,101447.91
2023-02-22T00:28:17.434Z,101447.84
2023-02-22T00:29:18.273Z,101447.59
2023-02-22T00:30:19.311Z,101447.27
2023-02-22T00:31:20.474Z,101447.83
2023-02-22T00:32:20.954Z,101447.17
2023-02-22T00:33:21.535Z,101447.20
2023-02-22T00:34:22.218Z,101446.87
2023-02-22T00:35:23.018Z,101446.44
2023-02-22T00:36:23.600Z,101446.14
2023-02-22T00:37:24.277Z,101445.65
2023-02-22T00:38:25.111Z,101444.65
2023-02-22T00:38:33.823Z,101434.78
2023-02-22T00:39:34.423Z,101440.31
2023-02-22T00:40:35.265Z,101439.56
2023-02-22T00:41:35.348Z,101439.39
2023-02-22T00:42:35.918Z,101439.15
2023-02-22T00:43:36.716Z,101439.48
2023-02-22T00:44:37.521Z,101439.39
2023-02-22T00:45:38.237Z,101438.89
2023-02-22T00:46:38.377Z,101438.83
2023-02-22T00:47:39.066Z,101438.41
2023-02-22T00:48:39.812Z,101437.65
2023-02-22T00:49:40.135Z,101437.39
2023-02-22T00:50:40.890Z,101437.48
2023-02-22T00:51:41.797Z,101437.33
2023-02-22T00:52:42.608Z,101436.89
2023-02-22T00:53:42.861Z,101436.55
2023-02-22T00:54:42.985Z,101436.39
2023-02-22T00:55:43.830Z,101435.83
2023-02-22T00:56:44.234Z,101434.91
2023-02-22T00:57:44.812Z,101434.05
2023-02-22T00:58:45.642Z,101433.58
2023-02-22T00:59:46.252Z,101432.33
2023-02-22T01:00:47.112Z,101431.31
2023-02-22T01:01:47.951Z,101430.58
2023-02-22T01:02:48.011Z,101429.67
2023-02-22T01:03:48.785Z,101428.42
2023-02-22T01:04:49.537Z,101427.32
2023-02-22T01:05:50.275Z,101426.75
2023-02-22T01:06:50.893Z,101425.67
2023-02-22T01:07:51.549Z,101424.69
2023-02-22T01:08:52.520Z,101424.01
2023-02-22T01:09:53.389Z,101422.77
2023-02-22T01:10:53.520Z,101421.84
2023-02-22T01:11:54.252Z,101420.29
2023-02-22T01:12:55.014Z,101419.20
2023-02-22T01:13:55.236Z,101418.30
2023-02-22T01:14:03.900Z,101402.32
2023-02-22T01:15:04.279Z,101405.99
2023-02-22T01:16:04.887Z,101406.16
2023-02-22T01:17:05.037Z,101405.92
2023-02-22T01:18:05.752Z,101405.84
2023-02-22T01:19:05.821Z,101405.99
2023-02-22T01:20:06.474Z,101405.67
2023-02-22T01:21:07.125Z,101405.77
2023-02-22T01:22:07.982Z,101405.27
2023-02-22T01:23:08.684Z,101405.09
2023-02-22T01:24:09.391Z,101404.67
2023-02-22T01:25:09.996Z,101403.75
2023-02-22T01:26:10.637Z,101403.75
2023-02-22T01:27:10.995Z,101403.48
2023-02-22T01:28:11.676Z,101403.16
2023-02-22T01:29:11.736Z,101402.32
2023-02-22T01:30:12.037Z,101402.25
2023-02-22T01:31:12.541Z,101401.48
2023-02-22T01:32:13.424Z,101400.98
2023-02-22T01:33:13.602Z,101400.83
2023-02-22T01:34:14.570Z,101400.48
2023-02-22T01:35:15.328Z,101399.81
2023-02-22T01:36:16.063Z,101399.66
2023-02-22T01:37:16.205Z,101399.48
2023-02-22T01:38:17.143Z,101398.66
2023-02-22T01:39:18.040Z,101398.31
2023-02-22T01:40:18.702Z,101397.66
2023-02-22T01:41:19.461Z,101396.91
2023-02-22T01:42:20.024Z,101395.76
2023-02-22T01:43:20.616Z,101394.74
2023-02-22T01:44:21.425Z,101393.92
2023-02-22T01:45:22.101Z,101393.24
2023-02-22T01:46:22.627Z,101392.00
2023-02-22T01:47:23.155Z,101391.19
2023-02-22T01:47:31.859Z,101371.70
2023-02-22T01:48:32.449Z,101384.22
2023-02-22T01:49:33.064Z,101383.13
2023-02-22T01:50:33.928Z,101382.13
2023-02-22T01:51:34.884Z,101381.70
2023-02-22T01:52:35.356Z,101380.88
2023-02-22T01:53:35.544Z,101379.98
2023-02-22T01:54:36.278Z,101378.98
2023-02-22T01:55:36.262Z,101378.05
2023-02-22T01:56:36.621Z,101376.98
2023-02-22T01:57:37.136Z,101376.30
2023-02-22T01:58:37.798Z,101375.39
2023-02-22T01:59:38.584Z,101374.58
2023-02-22T02:00:38.585Z,101373.97
2023-02-22T02:01:39.427Z,101373.66
2023-02-22T02:02:40.126Z,101372.84
2023-02-22T02:03:40.760Z,101372.59
2023-02-22T02:04:41.186Z,101372.33
2023-02-22T02:05:42.300Z,101371.84
2023-02-22T02:06:42.687Z,101371.34
2023-02-22T02:07:43.492Z,101371.02
2023-02-22T02:08:44.323Z,101369.52
2023-02-22T02:09:44.656Z,101369.45
2023-02-22T02:10:45.350Z,101369.05
2023-02-22T02:11:46.230Z,101368.20
2023-02-22T02:12:46.955Z,101368.13
2023-02-22T02:13:47.058Z,101367.79
2023-02-22T02:14:47.843Z,101367.55
2023-02-22T02:15:48.551Z,101367.12
2023-02-22T02:16:49.348Z,101366.38
2023-02-22T02:17:49.917Z,101366.31
2023-02-22T02:18:50.640Z,101365.70
2023-02-22T02:19:51.426Z,101365.13
2023-02-22T02:20:52.194Z,101364.39
2023-02-22T02:21:52.893Z,101363.80
2023-02-22T02:22:52.928Z,101363.23
2023-02-22T02:23:02.655Z,101349.59
2023-02-22T02:24:03.292Z,101356.74
2023-02-22T02:25:04.198Z,101355.91
2023-02-22T02:26:04.896Z,101355.24
2023-02-22T02:27:05.721Z,101355.34
2023-02-22T02:28:05.736Z,101354.83
2023-02-22T02:29:06.591Z,101354.50
2023-02-22T02:30:07.588Z,101354.50
2023-02-22T02:31:08.242Z,101354.00
2023-02-22T02:32:08.646Z,101353.59
2023-02-22T02:33:09.283Z,101353.26
2023-02-22T02:34:09.905Z,101352.92
2023-02-22T02:35:10.528Z,101352.58
2023-02-22T02:36:11.154Z,101352.08
2023-02-22T02:37:12.094Z,101351.26
2023-02-22T02:38:12.396Z,101351.00
2023-02-22T02:39:12.670Z,101350.15
2023-02-22T02:40:13.510Z,101349.76
2023-02-22T02:41:14.635Z,101349.08
2023-02-22T02:42:15.194Z,101348.67
2023-02-22T02:43:15.890Z,101348.43
2023-02-22T02:44:16.107Z,101347.77
2023-02-22T02:45:16.431Z,101347.27
2023-02-22T02:46:17.424Z,101346.94
2023-02-22T02:47:17.532Z,101346.86
2023-02-22T02:48:17.774Z,101346.10
2023-02-22T02:49:18.521Z,101346.28
2023-02-22T02:50:18.737Z,101346.60
2023-02-22T02:51:19.003Z,101346.36
2023-02-22T02:52:20.917Z,101345.86
2023-02-22T02:53:19.786Z,101345.53
2023-02-22T02:54:20.799Z,101345.13
2023-02-22T02:55:21.405Z,101344.72
2023-02-22T02:56:22.208Z,101344.47
2023-02-22T02:57:22.995Z,101344.45
2023-02-22T02:57:31.684Z,101338.98
2023-02-22T02:58:32.337Z,101342.64
2023-02-22T02:59:32.922Z,101342.22
2023-02-22T03:00:33.503Z,101341.46
2023-02-22T03:01:34.131Z,101341.46
2023-02-22T03:02:34.116Z,101341.23
2023-02-22T03:03:34.133Z,101340.98
2023-02-22T03:04:34.795Z,101340.89
2023-02-22T03:05:35.495Z,101340.72
2023-02-22T03:06:36.157Z,101341.22
2023-02-22T03:07:36.948Z,101340.80
2023-02-22T03:08:37.626Z,101341.05
2023-02-22T03:09:38.320Z,101341.13
2023-02-22T03:10:39.006Z,101341.46
2023-02-22T03:11:39.606Z,101341.46
2023-02-22T03:12:40.468Z,101340.80
2023-02-22T03:13:41.178Z,101340.96
2023-02-22T03:14:41.832Z,101340.96
2023-02-22T03:15:42.682Z,101341.46
2023-02-22T03:16:43.524Z,101341.46
2023-02-22T03:17:43.741Z,101341.46
2023-02-22T03:18:43.818Z,101341.80
2023-02-22T03:19:44.205Z,101342.30
2023-02-22T03:20:45.018Z,101341.91
2023-02-22T03:21:45.597Z,101341.72
2023-02-22T03:22:46.077Z,101342.07
2023-02-22T03:23:47.022Z,101342.13
2023-02-22T03:24:47.977Z,101341.98
2023-02-22T03:25:48.622Z,101341.83
2023-02-22T03:26:49.185Z,101342.56
2023-02-22T03:27:49.942Z,101342.48
2023-02-22T03:28:50.806Z,101342.56
2023-02-22T03:29:51.469Z,101342.58
2023-02-22T03:30:51.515Z,101342.75
2023-02-22T03:31:52.209Z,101342.35
2023-02-22T03:32:00.933Z,101339.54
2023-02-22T03:33:01.806Z,101339.73
2023-02-22T03:34:02.528Z,101339.23
2023-02-22T03:35:03.145Z,101339.31
2023-02-22T03:36:03.856Z,101339.63
2023-02-22T03:37:04.827Z,101339.28
2023-02-22T03:38:05.564Z,101339.30
2023-02-22T03:39:05.681Z,101339.38
2023-02-22T03:40:06.482Z,101339.45
2023-02-22T03:41:06.439Z,101339.19
2023-02-22T03:42:07.119Z,101338.95
2023-02-22T03:43:07.950Z,101338.36
2023-02-22T03:44:08.567Z,101337.63
2023-02-22T03:45:09.205Z,101337.13
2023-02-22T03:46:09.984Z,101336.21
2023-02-22T03:47:10.304Z,101335.95
2023-02-22T03:48:10.543Z,101335.73
2023-02-22T03:49:11.086Z,101334.95
2023-02-22T03:50:11.757Z,101334.64
2023-02-22T03:51:12.933Z,101334.23
2023-02-22T03:52:13.142Z,101333.16
2023-02-22T03:53:13.258Z,101332.21
2023-02-22T03:54:13.957Z,101331.47
2023-02-22T03:55:14.726Z,101330.73
2023-02-22T03:56:15.396Z,101330.56
2023-02-22T03:57:16.096Z,101329.98
2023-02-22T03:58:16.681Z,101329.80
2023-02-22T03:59:17.366Z,101329.97
2023-02-22T04:00:17.425Z,101329.97
2023-02-22T04:01:18.480Z,101329.30
2023-02-22T04:02:18.998Z,101329.56
2023-02-22T04:03:19.121Z,101329.64
2023-02-22T04:04:20.007Z,101329.47
2023-02-22T04:05:20.169Z,101329.47
2023-02-22T04:06:20.303Z,101329.30
2023-02-22T04:07:21.171Z,101329.30
2023-02-22T04:08:21.264Z,101329.30
2023-02-22T04:09:22.216Z,101329.30
2023-02-22T04:09:31.836Z,101325.73
2023-02-22T04:10:32.692Z,101327.58
2023-02-22T04:11:33.241Z,101326.93
2023-02-22T04:12:34.045Z,101326.82
2023-02-22T04:13:34.927Z,101326.41
2023-02-22T04:14:34.916Z,101326.67
2023-02-22T04:15:35.823Z,101325.33
2023-02-22T04:16:36.577Z,101325.27
2023-02-22T04:17:37.466Z,101324.75
2023-02-22T04:18:38.370Z,101324.66
2023-02-22T04:19:39.194Z,101324.66
2023-02-22T04:20:40.030Z,101324.66
2023-02-22T04:21:40.922Z,101324.09
2023-02-22T04:22:41.714Z,101324.09
2023-02-22T04:23:41.973Z,101324.01
2023-02-22T04:24:42.680Z,101323.91
2023-02-22T04:25:43.686Z,101323.33
2023-02-22T04:26:44.491Z,101322.94
2023-02-22T04:27:45.347Z,101322.09
2023-02-22T04:28:45.390Z,101321.58
2023-02-22T04:29:46.052Z,101321.34
2023-02-22T04:30:46.943Z,101321.69
2023-02-22T04:31:47.952Z,101321.77
2023-02-22T04:32:48.905Z,101321.67
2023-02-22T04:33:49.818Z,101321.58
2023-02-22T04:34:50.763Z,101321.27
2023-02-22T04:35:50.785Z,101320.92
2023-02-22T04:36:51.776Z,101321.02
2023-02-22T04:37:52.537Z,101320.78
2023-02-22T04:38:53.136Z,101320.86
2023-02-22T04:39:53.674Z,101320.60
2023-02-22T04:40:54.116Z,101320.27
2023-02-22T04:41:54.631Z,101320.10
2023-02-22T04:42:54.640Z,101319.84
2023-02-22T04:43:54.961Z,101319.62
2023-02-22T04:44:05.225Z,101314.44
2023-02-22T04:45:06.131Z,101320.77
2023-02-22T04:46:06.875Z,101319.70
2023-02-22T04:47:07.044Z,101319.27
2023-02-22T04:48:07.479Z,101318.44
2023-02-22T04:49:08.183Z,101318.36
2023-02-22T04:50:08.827Z,101318.02
2023-02-22T04:51:09.223Z,101317.69
2023-02-22T04:52:09.818Z,101318.12
2023-02-22T04:53:10.313Z,101318.12
2023-02-22T04:54:11.180Z,101318.17
2023-02-22T04:55:11.951Z,101318.01
2023-02-22T04:56:12.810Z,101317.84
2023-02-22T04:57:13.456Z,101317.84
2023-02-22T04:58:14.051Z,101317.52
2023-02-22T04:59:14.349Z,101317.62
2023-02-22T05:00:15.074Z,101317.52
2023-02-22T05:01:15.633Z,101317.21
2023-02-22T05:02:15.245Z,101317.19
2023-02-22T05:03:15.378Z,101316.77
2023-02-22T05:04:15.509Z,101316.62
2023-02-22T05:05:16.199Z,101315.71
2023-02-22T05:06:16.813Z,101315.27
2023-02-22T05:07:17.445Z,101314.86
2023-02-22T05:08:18.401Z,101313.95
2023-02-22T05:09:19.022Z,101313.71
2023-02-22T05:10:19.817Z,101313.04
2023-02-22T05:11:20.314Z,101312.54
2023-02-22T05:12:20.972Z,101311.71
2023-02-22T05:13:21.848Z,101310.71
2023-02-22T05:14:22.384Z,101310.39
2023-02-22T05:15:23.200Z,101310.21
2023-02-22T05:16:23.588Z,101309.47
2023-02-22T05:17:23.607Z,101308.89
2023-02-22T05:18:24.454Z,101308.16
2023-02-22T05:18:36.183Z,101297.99
2023-02-22T05:19:37.084Z,101303.50
2023-02-22T05:20:37.775Z,101303.48
2023-02-22T05:21:38.636Z,101303.16
2023-02-22T05:22:39.336Z,101303.31
2023-02-22T05:23:41.200Z,101303.23
2023-02-22T05:24:40.983Z,101303.42
2023-02-22T05:25:41.887Z,101303.00
2023-02-22T05:26:42.264Z,101302.73
2023-02-22T05:27:43.128Z,101302.84
2023-02-22T05:28:44.026Z,101302.41
2023-02-22T05:29:44.948Z,101302.58
2023-02-22T05:30:45.911Z,101302.34
2023-02-22T05:31:46.619Z,101302.34
2023-02-22T05:32:47.269Z,101302.18
2023-02-22T05:33:47.598Z,101302.34
2023-02-22T05:34:47.617Z,101302.01
2023-02-22T05:35:48.302Z,101302.35
2023-02-22T05:36:49.112Z,101301.92
2023-02-22T05:37:49.795Z,101301.92
2023-02-22T05:38:49.991Z,101302.50
2023-02-22T05:39:50.953Z,101302.94
2023-02-22T05:40:51.680Z,101303.08
2023-02-22T05:41:52.702Z,101303.27
2023-02-22T05:42:53.667Z,101303.26
2023-02-22T05:43:54.512Z,101303.42
2023-02-22T05:44:54.590Z,101303.50
2023-02-22T05:45:55.533Z,101303.69
2023-02-22T05:46:55.933Z,101304.33
2023-02-22T05:47:56.537Z,101304.59
2023-02-22T05:48:57.206Z,101304.77
2023-02-22T05:49:57.945Z,101304.59
2023-02-22T05:50:58.421Z,101304.91
2023-02-22T05:51:59.171Z,101305.09
2023-02-22T05:52:08.859Z,101301.16
2023-02-22T05:53:09.096Z,101308.47
2023-02-22T05:54:09.649Z,101308.41
2023-02-22T05:55:09.761Z,101308.47
2023-02-22T05:56:10.229Z,101308.08
2023-02-22T05:57:11.100Z,101307.89
2023-02-22T05:58:11.862Z,101307.30
2023-02-22T05:59:12.501Z,101307.39
2023-02-22T06:00:13.301Z,101306.98
2023-02-22T06:01:14.210Z,101306.66
2023-02-22T06:02:14.777Z,101306.16
2023-02-22T06:03:15.453Z,101305.90
2023-02-22T06:04:16.331Z,101306.23
2023-02-22T06:05:16.458Z,101306.06
2023-02-22T06:06:17.059Z,101305.80
2023-02-22T06:07:17.970Z,101305.80
2023-02-22T06:08:18.351Z,101305.82
2023-02-22T06:09:18.786Z,101305.82
2023-02-22T06:10:19.585Z,101305.40
2023-02-22T06:11:20.454Z,101305.47
2023-02-22T06:12:21.357Z,101305.58
2023-02-22T06:13:21.377Z,101306.30
2023-02-22T06:14:22.171Z,101306.23
2023-02-22T06:15:22.042Z,101306.16
2023-02-22T06:16:22.847Z,101306.24
2023-02-22T06:17:23.866Z,101306.56
2023-02-22T06:18:23.625Z,101306.48
2023-02-22T06:19:23.631Z,101306.81
2023-02-22T06:20:24.404Z,101307.06
2023-02-22T06:21:24.575Z,101306.98
2023-02-22T06:22:25.558Z,101306.42
2023-02-22T06:23:26.155Z,101306.23
2023-02-22T06:24:26.624Z,101305.91
2023-02-22T06:25:27.163Z,101305.66
2023-02-22T06:25:35.812Z,101303.14
2023-02-22T06:26:35.939Z,101306.80
2023-02-22T06:27:36.362Z,101306.41
2023-02-22T06:28:36.142Z,101306.47
2023-02-22T06:29:36.880Z,101306.56
2023-02-22T06:30:37.798Z,101306.23
2023-02-22T06:31:38.638Z,101306.16
2023-02-22T06:32:39.343Z,101305.75
2023-02-22T06:33:40.221Z,101305.47
2023-02-22T06:34:41.012Z,101305.06
2023-02-22T06:35:41.981Z,101304.83
2023-02-22T06:36:41.993Z,101304.75
2023-02-22T06:37:42.415Z,101304.91
2023-02-22T06:38:42.441Z,101304.66
2023-02-22T06:39:43.249Z,101304.42
2023-02-22T06:40:44.181Z,101304.48
2023-02-22T06:41:44.783Z,101304.33
2023-02-22T06:42:45.863Z,101303.98
2023-02-22T06:43:46.428Z,101304.06
2023-02-22T06:44:46.491Z,101304.17
2023-02-22T06:45:46.747Z,101303.83
2023-02-22T06:46:47.584Z,101303.98
2023-02-22T06:47:47.620Z,101303.92
2023-02-22T06:48:48.530Z,101304.00
2023-02-22T06:49:48.979Z,101304.08
2023-02-22T06:50:49.018Z,101303.59
2023-02-22T06:51:49.596Z,101303.73
2023-02-22T06:52:50.281Z,101303.17
2023-02-22T06:53:51.106Z,101303.07
2023-02-22T06:54:52.032Z,101303.17
2023-02-22T06:55:52.999Z,101302.93
2023-02-22T06:56:53.966Z,101302.83
2023-02-22T06:57:03.695Z,101299.52
2023-02-22T06:58:03.754Z,101304.99
2023-02-22T06:59:04.510Z,101304.75
2023-02-22T07:00:05.432Z,101303.50
2023-02-22T07:01:05.900Z,101302.76
2023-02-22T07:02:06.502Z,101302.02
2023-02-22T07:03:07.412Z,101301.92
2023-02-22T07:04:07.896Z,101301.18
2023-02-22T07:05:08.587Z,101300.92
2023-02-22T07:06:09.439Z,101300.33
2023-02-22T07:07:09.771Z,101300.16
2023-02-22T07:08:10.624Z,101300.25
2023-02-22T07:09:11.260Z,101300.16
2023-02-22T07:10:11.572Z,101299.99
2023-02-22T07:11:12.462Z,101299.91
2023-02-22T07:12:12.853Z,101299.43
2023-02-22T07:13:13.104Z,101298.75
2023-02-22T07:14:13.351Z,101298.94
2023-02-22T07:15:14.688Z,101298.83
2023-02-22T07:16:14.367Z,101298.26
2023-02-22T07:17:14.852Z,101297.94
2023-02-22T07:18:15.272Z,101298.34
2023-02-22T07:19:15.611Z,101298.66
2023-02-22T07:20:15.632Z,101298.61
2023-02-22T07:21:16.979Z,101298.84
2023-02-22T07:22:17.506Z,101298.42
2023-02-22T07:23:18.177Z,101298.84
2023-02-22T07:24:18.210Z,101299.67
2023-02-22T07:25:18.224Z,101300.17
2023-02-22T07:26:19.097Z,101300.08
2023-02-22T07:27:19.821Z,101301.77
2023-02-22T07:28:20.748Z,101302.32
2023-02-22T07:28:30.437Z,101321.81
2023-02-22T07:29:31.174Z,101315.97
2023-02-22T07:30:31.974Z,101315.98
2023-02-22T07:31:32.170Z,101315.82
2023-02-22T07:32:32.978Z,101316.15
2023-02-22T07:33:33.458Z,101316.15
2023-02-22T07:34:34.424Z,101316.58
2023-02-22T07:35:34.532Z,101316.47
2023-02-22T07:36:35.543Z,101316.98
2023-02-22T07:37:36.539Z,101316.91
2023-02-22T07:38:36.548Z,101317.06
2023-02-22T07:39:37.266Z,101317.16
2023-02-22T07:40:37.385Z,101317.22
2023-02-22T07:41:38.057Z,101317.47
2023-02-22T07:42:38.783Z,101317.73
2023-02-22T07:43:39.532Z,101317.66
2023-02-22T07:44:39.783Z,101317.80
2023-02-22T07:45:40.749Z,101318.16
2023-02-22T07:46:41.497Z,101318.90
2023-02-22T07:47:41.989Z,101318.90
2023-02-22T07:48:42.818Z,101318.81
2023-02-22T07:49:43.658Z,101319.22
2023-02-22T07:50:44.295Z,101319.46
2023-02-22T07:51:45.163Z,101319.05
2023-02-22T07:52:45.918Z,101319.47
2023-02-22T07:53:46.687Z,101319.56
2023-02-22T07:54:47.493Z,101319.72
2023-02-22T07:55:48.223Z,101318.97
2023-02-22T07:56:49.051Z,101319.36
2023-02-22T07:57:49.579Z,101319.29
2023-02-22T07:58:49.845Z,101319.69
2023-02-22T07:59:49.868Z,101319.02
2023-02-22T08:00:50.180Z,101318.88
2023-02-22T08:01:50.276Z,101318.77
2023-02-22T08:01:59.021Z,101314.60
2023-02-22T08:02:59.359Z,101325.27
2023-02-22T08:04:00.162Z,101324.01
2023-02-22T08:05:00.819Z,101323.34
2023-02-22T08:06:01.565Z,101322.27
2023-02-22T08:07:02.209Z,101321.02
2023-02-22T08:08:03.198Z,101319.69
2023-02-22T08:09:04.252Z,101318.91
2023-02-22T08:10:04.725Z,101316.91
2023-02-22T08:11:04.842Z,101315.77
2023-02-22T08:12:05.702Z,101314.36
2023-02-22T08:13:06.465Z,101312.75
2023-02-22T08:14:07.214Z,101311.27
2023-02-22T08:15:07.901Z,101309.43
2023-02-22T08:16:08.218Z,101307.91
2023-02-22T08:17:09.003Z,101306.31
2023-02-22T08:18:09.197Z,101305.07
2023-02-22T08:19:09.249Z,101303.31
2023-02-22T08:20:10.105Z,101301.30
2023-02-22T08:21:10.807Z,101299.71
2023-02-22T08:22:11.484Z,101297.45
2023-02-22T08:23:11.537Z,101295.97
2023-02-22T08:24:11.875Z,101294.30
2023-02-22T08:25:12.724Z,101293.02
2023-02-22T08:26:13.223Z,101290.86
2023-02-22T08:27:13.838Z,101289.77
2023-02-22T08:28:14.511Z,101288.24
2023-02-22T08:29:15.318Z,101286.98
2023-02-22T08:30:16.043Z,101286.73
2023-02-22T08:31:17.326Z,101285.40
2023-02-22T08:32:17.622Z,101284.87
2023-02-22T08:33:18.177Z,101284.20
2023-02-22T08:34:18.752Z,101283.48
2023-02-22T08:35:19.375Z,101282.62
2023-02-22T08:35:30.954Z,101273.30
2023-02-22T08:36:31.541Z,101267.34
2023-02-22T08:37:32.413Z,101266.56
2023-02-22T08:38:33.268Z,101266.06
2023-02-22T08:39:34.062Z,101266.08
2023-02-22T08:40:34.536Z,101265.50
2023-02-22T08:41:35.423Z,101265.31
2023-02-22T08:42:35.948Z,101264.65
2023-02-22T08:43:36.751Z,101263.57
2023-02-22T08:44:37.747Z,101263.31
2023-02-22T08:45:38.438Z,101262.48
2023-02-22T08:46:38.814Z,101261.83
2023-02-22T08:47:38.962Z,101260.33
2023-02-22T08:48:39.123Z,101258.97
2023-02-22T08:49:39.880Z,101257.28
2023-02-22T08:50:40.499Z,101255.61
2023-02-22T08:51:41.351Z,101254.72
2023-02-22T08:52:41.967Z,101253.38
2023-02-22T08:53:42.516Z,101252.02
2023-02-22T08:54:42.791Z,101249.99
2023-02-22T08:55:43.059Z,101248.39
2023-02-22T08:56:43.218Z,101246.88
2023-02-22T08:57:43.920Z,101245.03
2023-02-22T08:58:44.762Z,101243.59
2023-02-22T08:59:45.528Z,101242.16
2023-02-22T09:00:46.500Z,101240.66
2023-02-22T09:01:47.505Z,101239.88
2023-02-22T09:02:50.242Z,101238.62
2023-02-22T09:03:48.627Z,101237.09
2023-02-22T09:04:48.626Z,101236.08
2023-02-22T09:05:49.621Z,101234.48
2023-02-22T09:06:50.329Z,101233.37
2023-02-22T09:07:50.343Z,101232.20
2023-02-22T09:07:59.487Z,101225.42
2023-02-22T09:08:59.123Z,101217.61
2023-02-22T09:09:59.717Z,101217.34
2023-02-22T09:10:59.926Z,101217.34
2023-02-22T09:12:00.946Z,101216.91
2023-02-22T09:13:01.774Z,101216.72
2023-02-22T09:14:02.294Z,101216.55
2023-02-22T09:15:03.042Z,101216.41
2023-02-22T09:16:03.000Z,101216.91
2023-02-22T09:17:05.788Z,101216.48
2023-02-22T09:18:04.636Z,101215.48
2023-02-22T09:19:05.269Z,101215.38
2023-02-22T09:20:06.238Z,101215.55
2023-02-22T09:21:07.115Z,101215.03
2023-02-22T09:22:07.425Z,101214.75
2023-02-22T09:23:07.461Z,101214.39
2023-02-22T09:24:07.553Z,101214.04
2023-02-22T09:25:16.779Z,101213.88
2023-02-22T09:26:08.898Z,101213.31
2023-02-22T09:27:09.649Z,101212.78
2023-02-22T09:28:09.854Z,101212.34
2023-02-22T09:29:10.642Z,101212.23
2023-02-22T09:30:10.782Z,101211.42
2023-02-22T09:31:11.298Z,101211.98
2023-02-22T09:32:12.471Z,101211.42
2023-02-22T09:33:13.275Z,101211.62
2023-02-22T09:34:13.137Z,101210.92
2023-02-22T09:35:13.295Z,101210.19
2023-02-22T09:36:13.472Z,101210.23
2023-02-22T09:37:13.482Z,101210.17
2023-02-22T09:38:13.746Z,101208.78
2023-02-22T09:39:14.514Z,101208.59
2023-02-22T09:39:24.490Z,101205.12
2023-02-22T09:40:25.529Z,101198.95
2023-02-22T09:41:25.343Z,101198.03
2023-02-22T09:42:25.515Z,101197.28
2023-02-22T09:43:25.811Z,101196.25
2023-02-22T09:44:26.301Z,101195.02
2023-02-22T09:45:27.212Z,101194.75
2023-02-22T09:46:27.854Z,101193.73
2023-02-22T09:47:27.978Z,101192.73
2023-02-22T09:48:28.752Z,101192.17
2023-02-22T09:49:28.742Z,101191.70
2023-02-22T09:50:29.653Z,101191.05
2023-02-22T09:51:31.572Z,101190.48
2023-02-22T09:52:30.698Z,101189.27
2023-02-22T09:53:31.726Z,101188.67
2023-02-22T09:54:32.517Z,101187.28
2023-02-22T09:55:32.666Z,101186.81
2023-02-22T09:56:33.022Z,101185.20
2023-02-22T09:57:33.798Z,101184.06
2023-02-22T09:58:34.856Z,101182.59
2023-02-22T09:59:34.605Z,101181.69
2023-02-22T10:00:35.589Z,101180.72
2023-02-22T10:01:36.333Z,101178.88
2023-02-22T10:02:37.291Z,101177.93
2023-02-22T10:03:38.307Z,101177.36
2023-02-22T10:04:39.058Z,101175.97
2023-02-22T10:05:39.994Z,101175.46
2023-02-22T10:06:40.532Z,101174.34
2023-02-22T10:07:41.229Z,101173.88
2023-02-22T10:08:41.305Z,101172.61
2023-02-22T10:09:41.532Z,101171.73
2023-02-22T10:09:50.307Z,101177.10
2023-02-22T10:10:50.354Z,101160.96
2023-02-22T10:11:51.083Z,101161.49
2023-02-22T10:12:51.738Z,101161.86
2023-02-22T10:13:52.474Z,101161.72
2023-02-22T10:14:53.470Z,101161.80
2023-02-22T10:15:53.589Z,101162.47
2023-02-22T10:16:54.367Z,101162.24
2023-02-22T10:17:54.489Z,101162.58
2023-02-22T10:18:55.271Z,101162.86
2023-02-22T10:19:56.022Z,101162.80
2023-02-22T10:20:56.781Z,101163.09
2023-02-22T10:21:57.605Z,101163.41
2023-02-22T10:22:58.406Z,101163.63
2023-02-22T10:23:58.958Z,101164.08
2023-02-22T10:24:59.626Z,101164.81
2023-02-22T10:26:01.285Z,101165.03
2023-02-22T10:27:01.100Z,101165.23
2023-02-22T10:28:01.781Z,101164.98
2023-02-22T10:29:02.631Z,101165.35
2023-02-22T10:30:05.612Z,101165.88
2023-02-22T10:31:02.866Z,101166.02
2023-02-22T10:32:03.609Z,101166.33
2023-02-22T10:33:04.176Z,101166.14
2023-02-22T10:34:04.825Z,101166.11
2023-02-22T10:35:05.544Z,101165.89
2023-02-22T10:36:05.640Z,101165.50
2023-02-22T10:37:05.768Z,101165.19
2023-02-22T10:38:06.615Z,101164.89
2023-02-22T10:39:07.388Z,101164.22
2023-02-22T10:40:08.093Z,101163.88
2023-02-22T10:41:08.894Z,101163.41
2023-02-22T10:42:09.690Z,101163.06
2023-02-22T10:42:18.884Z,101174.72
2023-02-22T10:43:19.660Z,101156.09
2023-02-22T10:44:20.662Z,101155.92
2023-02-22T10:45:21.423Z,101156.23
2023-02-22T10:46:22.460Z,101156.03
2023-02-22T10:47:23.012Z,101155.80
2023-02-22T10:48:23.732Z,101155.83
2023-02-22T10:49:23.777Z,101155.84
2023-02-22T10:50:24.417Z,101155.79
2023-02-22T10:51:25.127Z,101155.90
2023-02-22T10:52:26.152Z,101155.20
2023-02-22T10:53:26.919Z,101155.27
2023-02-22T10:54:27.905Z,101155.08
2023-02-22T10:55:28.788Z,101155.27
2023-02-22T10:56:29.743Z,101154.70
2023-02-22T10:57:30.581Z,101154.98
2023-02-22T10:58:31.442Z,101154.66
2023-02-22T10:59:32.035Z,101154.52
2023-02-22T11:00:32.830Z,101154.77
2023-02-22T11:01:33.087Z,101154.73
2023-02-22T11:02:33.682Z,101154.60
2023-02-22T11:03:34.037Z,101155.22
2023-02-22T11:04:34.938Z,101155.26
2023-02-22T11:05:35.614Z,101155.64
2023-02-22T11:06:36.354Z,101155.83
2023-02-22T11:07:37.443Z,101156.44
2023-02-22T11:08:37.676Z,101157.00
2023-02-22T11:09:38.530Z,101157.05
2023-02-22T11:10:39.316Z,101157.19
2023-02-22T11:11:39.978Z,101157.30
2023-02-22T11:12:40.567Z,101157.77
2023-02-22T11:13:41.297Z,101157.40
2023-02-22T11:14:41.962Z,101157.31